Terminal Aerodrome Forecast
Issued by NWS

Home | Current Version | Previous Version | Text Only | Print | Product List | Glossary On
Versions: 1 2 3 4 5 6 7 8 9 10 11 12 13 14 15 16 17 18 19 20 21 22 23 24 25 26 27 28 29 30 31 32 33 34 35 36 37 38 39 40 41 42 43 44 45 46 47 48 49 50
000
FTUS42 KMFL 242127 AAA
TAFFXE
TAF AMD
KFXE 242127Z 2421/2518 16010KT P6SM FEW025
     FM250000 14005KT P6SM SCT030
     FM250600 VRB03KT P6SM SCT005 BKN020
     FM251200 14007KT P6SM VCSH SCT010 BKN030=

USA.gov is the U.S. government's official web portal to all federal, state and local government web resources and services.